createdAt,value
2019-05-30T00:06:33.818Z,76.25
2019-05-30T00:09:00.894Z,76.32
2019-05-30T00:11:27.653Z,75.74
2019-05-30T00:13:54.702Z,75.35
2019-05-30T00:57:21.238Z,74.71
2019-05-30T00:59:48.072Z,74.72
2019-05-30T01:02:14.999Z,75.31
2019-05-30T01:04:51.753Z,72.78
2019-05-30T01:07:18.444Z,72.81
2019-05-30T01:09:45.392Z,71.25
2019-05-30T01:12:12.998Z,72.02
2019-05-30T01:14:47.702Z,71.11
2019-05-30T01:17:14.285Z,72.37
2019-05-30T01:19:41.115Z,72.60
2019-05-30T01:22:08.392Z,72.02
2019-05-30T01:24:47.767Z,71.44
2019-05-30T01:31:16.951Z,69.83
2019-05-30T01:33:43.783Z,70.51
2019-05-30T01:36:11.406Z,70.87
2019-05-30T01:38:45.028Z,70.07
2019-05-30T01:41:54.648Z,69.32
2019-05-30T01:44:21.120Z,69.68
2019-05-30T01:46:47.692Z,70.86
2019-05-30T01:49:27.869Z,70.55
2019-05-30T01:52:13.296Z,70.67
2019-05-30T01:54:40.005Z,70.55
2019-05-30T01:57:06.815Z,69.69
2019-05-30T01:59:33.566Z,69.30
2019-05-30T02:02:00.889Z,69.87
2019-05-30T02:04:27.793Z,69.45
2019-05-30T02:06:54.358Z,69.63
2019-05-30T02:09:21.031Z,69.73
2019-05-30T02:11:47.854Z,69.55
2019-05-30T02:14:14.440Z,69.74
2019-05-30T02:16:41.144Z,70.12
2019-05-30T02:19:10.584Z,69.92
2019-05-30T02:21:37.316Z,69.97
2019-05-30T02:24:04.058Z,69.43
2019-05-30T02:26:30.814Z,69.62
2019-05-30T02:28:57.886Z,70.21
2019-05-30T02:31:38.346Z,69.82
2019-05-30T02:33:52.961Z,70.70
2019-05-30T02:36:19.524Z,70.96
2019-05-30T02:38:46.277Z,70.14
2019-05-30T02:41:13.036Z,70.54
2019-05-30T02:47:22.642Z,69.26
2019-05-30T02:49:49.458Z,68.46
2019-05-30T02:52:16.295Z,68.80
2019-05-30T02:54:49.755Z,68.51
2019-05-30T02:57:16.299Z,68.48
2019-05-30T02:59:42.933Z,70.60
2019-05-30T03:02:28.348Z,68.34
2019-05-30T03:04:55.065Z,69.18
2019-05-30T03:08:03.982Z,68.65
2019-05-30T05:01:56.609Z,62.92
2019-05-30T05:04:23.311Z,63.33
2019-05-30T05:06:49.948Z,63.84
2019-05-30T05:09:17.980Z,63.83
2019-05-30T05:11:44.942Z,63.78
2019-05-30T05:14:12.314Z,64.19
2019-05-30T05:16:39.076Z,64.24
2019-05-30T05:19:05.833Z,67.45
2019-05-30T05:21:32.448Z,63.75
2019-05-30T05:23:59.285Z,64.08
2019-05-30T05:26:25.896Z,63.33
2019-05-30T05:28:52.545Z,65.10
2019-05-30T05:31:20.316Z,62.54
2019-05-30T05:33:56.667Z,64.44
2019-05-30T05:36:16.850Z,63.33
2019-05-30T05:38:43.834Z,62.53
2019-05-30T05:41:10.500Z,64.10
2019-05-30T05:43:37.321Z,64.22
2019-05-30T05:46:04.128Z,64.46
2019-05-30T05:48:30.866Z,64.82
2019-05-30T05:50:57.629Z,65.13
2019-05-30T05:53:25.147Z,64.43
2019-05-30T05:55:51.976Z,62.97
2019-05-30T05:58:19.151Z,62.14
2019-05-30T06:00:45.929Z,63.92
2019-05-30T06:03:12.513Z,63.36
2019-05-30T06:05:52.228Z,62.54
2019-05-30T06:08:07.851Z,63.58
2019-05-30T06:10:34.698Z,63.07
2019-05-30T06:13:01.410Z,63.39
2019-05-30T06:15:29.038Z,62.96
2019-05-30T06:17:55.734Z,63.20
2019-05-30T06:20:23.344Z,63.43
2019-05-30T06:22:50.110Z,63.71
2019-05-30T06:25:19.034Z,62.89
2019-05-30T06:27:46.486Z,63.38
2019-05-30T06:30:13.380Z,63.55
2019-05-30T06:32:40.524Z,63.62
2019-05-30T06:35:07.864Z,63.81
2019-05-30T06:37:34.755Z,64.34
2019-05-30T06:40:01.410Z,62.86
2019-05-30T06:42:28.290Z,64.34
2019-05-30T06:44:55.152Z,63.23
2019-05-30T06:47:22.200Z,63.40
2019-05-30T06:49:49.095Z,64.12
2019-05-30T06:52:16.117Z,64.66
2019-05-30T06:54:42.847Z,64.33
2019-05-30T06:57:09.589Z,63.10
2019-05-30T06:59:36.116Z,63.89
2019-05-30T07:02:03.186Z,63.47
2019-05-30T07:04:48.986Z,64.20
2019-05-30T07:06:58.906Z,63.75
2019-05-30T07:09:26.795Z,64.21
2019-05-30T07:11:53.893Z,63.80
2019-05-30T07:14:20.974Z,63.01
2019-05-30T07:16:47.712Z,63.33
2019-05-30T07:19:14.250Z,63.47
2019-05-30T07:21:41.071Z,63.00
2019-05-30T07:24:07.806Z,62.63
2019-05-30T07:26:34.436Z,63.07
2019-05-30T07:29:01.105Z,62.74
2019-05-30T07:31:28.383Z,63.45
2019-05-30T07:33:55.032Z,63.59
2019-05-30T07:36:21.782Z,63.83
2019-05-30T07:38:48.549Z,64.74
2019-05-30T07:41:15.182Z,64.59
2019-05-30T07:43:41.796Z,64.47
2019-05-30T07:46:08.711Z,65.15
2019-05-30T07:48:35.378Z,65.88
2019-05-30T07:51:03.968Z,65.56
2019-05-30T07:53:33.432Z,65.72
2019-05-30T07:56:00.051Z,65.49
2019-05-30T07:58:27.049Z,65.69
2019-05-30T08:00:54.026Z,66.07
2019-05-30T08:03:20.678Z,68.25
2019-05-30T08:05:47.363Z,67.59
2019-05-30T08:08:13.986Z,69.20
2019-05-30T08:10:40.657Z,68.77
2019-05-30T08:13:07.245Z,67.93
2019-05-30T08:15:36.266Z,69.28
2019-05-30T08:18:02.730Z,70.77
2019-05-30T08:20:29.728Z,72.14
2019-05-30T08:22:56.459Z,72.79
2019-05-30T08:25:23.040Z,70.16
2019-05-30T08:27:49.817Z,71.28
2019-05-30T08:30:18.842Z,71.98
2019-05-30T08:32:45.411Z,71.93
2019-05-30T08:35:13.277Z,71.91
2019-05-30T08:37:40.224Z,70.61
2019-05-30T08:40:09.491Z,70.97
2019-05-30T08:42:37.925Z,73.00
2019-05-30T08:45:09.456Z,73.75
2019-05-30T08:47:34.581Z,72.16
2019-05-30T08:50:01.545Z,75.39
2019-05-30T08:52:28.267Z,73.22
2019-05-30T08:54:54.902Z,73.00
2019-05-30T08:57:21.537Z,71.76
2019-05-30T08:59:48.006Z,72.46
2019-05-30T09:02:15.442Z,71.22
2019-05-30T09:04:42.056Z,68.68
2019-05-30T09:07:08.763Z,69.71
2019-05-30T09:09:36.091Z,69.19
2019-05-30T09:12:03.403Z,69.27
2019-05-30T09:14:30.231Z,70.97
2019-05-30T09:16:57.162Z,70.41
2019-05-30T09:19:23.718Z,71.03
2019-05-30T09:21:50.702Z,70.74
2019-05-30T09:24:17.567Z,69.41
2019-05-30T09:26:48.356Z,68.51
2019-05-30T09:29:13.077Z,68.90
2019-05-30T09:31:41.156Z,67.17
2019-05-30T09:34:11.983Z,70.43
2019-05-30T09:36:39.411Z,68.33
2019-05-30T09:39:07.373Z,69.29
2019-05-30T09:41:36.586Z,67.05
2019-05-30T09:44:03.848Z,66.28
2019-05-30T09:46:30.572Z,67.56
2019-05-30T09:48:57.304Z,66.31
2019-05-30T09:51:23.949Z,65.89
2019-05-30T09:53:50.532Z,67.00
2019-05-30T09:56:17.101Z,64.76
2019-05-30T09:58:44.041Z,65.59
2019-05-30T10:01:11.091Z,65.18
2019-05-30T10:03:38.733Z,67.73
2019-05-30T10:06:05.504Z,68.47
2019-05-30T10:08:32.067Z,67.57
2019-05-30T10:10:58.998Z,65.80
2019-05-30T10:13:26.360Z,63.08
2019-05-30T10:15:53.322Z,63.11
2019-05-30T10:18:20.106Z,61.93
2019-05-30T10:20:48.147Z,64.10
2019-05-30T10:23:17.922Z,63.78
2019-05-30T10:25:45.953Z,62.62
2019-05-30T10:28:12.926Z,62.60
2019-05-30T10:30:39.774Z,64.20
2019-05-30T10:33:08.175Z,63.67
2019-05-30T10:35:34.997Z,65.45
2019-05-30T10:38:01.880Z,66.22
2019-05-30T10:40:32.113Z,65.71
2019-05-30T10:42:58.220Z,65.97
2019-05-30T10:45:26.717Z,65.39
2019-05-30T10:47:53.791Z,65.07
2019-05-30T10:50:21.182Z,63.98
2019-05-30T10:52:49.293Z,65.60
2019-05-30T10:55:17.840Z,64.02
2019-05-30T10:57:45.187Z,65.60
2019-05-30T11:00:20.102Z,63.94
2019-05-30T11:02:47.836Z,66.04
2019-05-30T11:05:16.735Z,64.99
2019-05-30T11:08:06.260Z,64.83
2019-05-30T11:10:37.719Z,66.52
2019-05-30T11:13:12.346Z,69.22
2019-05-30T11:15:39.287Z,67.20
2019-05-30T11:18:06.182Z,67.77
2019-05-30T11:20:34.160Z,67.19
2019-05-30T11:23:00.900Z,67.89
2019-05-30T11:25:27.653Z,67.64
2019-05-30T11:27:54.817Z,69.09
2019-05-30T11:30:22.048Z,68.37
2019-05-30T11:32:49.018Z,68.16
2019-05-30T11:35:15.900Z,69.28
2019-05-30T11:37:43.021Z,70.16
2019-05-30T11:40:09.840Z,70.55
2019-05-30T11:42:36.793Z,69.83
2019-05-30T11:45:06.877Z,69.48
2019-05-30T11:47:33.773Z,71.04
2019-05-30T11:50:00.497Z,73.33
2019-05-30T11:52:26.980Z,70.70
2019-05-30T11:54:54.176Z,71.69
2019-05-30T11:57:21.104Z,70.30
2019-05-30T11:59:47.681Z,71.06
2019-05-30T12:02:14.675Z,70.92
2019-05-30T12:04:42.172Z,71.32
2019-05-30T12:07:09.356Z,68.97
2019-05-30T12:09:41.863Z,70.17
2019-05-30T12:12:08.688Z,69.36
2019-05-30T12:14:35.619Z,70.09
2019-05-30T12:17:02.355Z,68.86
2019-05-30T12:19:29.143Z,68.34
2019-05-30T12:21:55.878Z,64.81
2019-05-30T12:24:22.656Z,65.87
2019-05-30T12:26:49.403Z,69.64
2019-05-30T12:29:16.334Z,68.90
2019-05-30T12:31:42.952Z,70.90
2019-05-30T12:34:09.524Z,68.31
2019-05-30T12:36:36.516Z,69.88
2019-05-30T12:39:05.588Z,69.01
2019-05-30T12:41:32.354Z,70.88
2019-05-30T12:43:59.178Z,68.54
2019-05-30T12:46:25.977Z,66.77
2019-05-30T12:48:53.282Z,66.88
2019-05-30T12:51:20.118Z,68.45
2019-05-30T12:53:46.737Z,68.27
2019-05-30T12:56:13.473Z,67.87
2019-05-30T12:58:40.081Z,68.87
2019-05-30T13:01:07.059Z,69.98
2019-05-30T13:03:34.125Z,67.71
2019-05-30T13:06:01.215Z,68.17
2019-05-30T13:08:27.866Z,67.36
2019-05-30T13:10:55.539Z,67.89
2019-05-30T13:13:22.471Z,69.01
2019-05-30T13:15:49.084Z,68.94
2019-05-30T13:18:15.989Z,67.72
2019-05-30T13:20:42.775Z,68.16
2019-05-30T13:23:09.413Z,68.36
2019-05-30T13:25:35.967Z,69.39
2019-05-30T13:28:06.277Z,69.85
2019-05-30T13:30:32.188Z,69.48
2019-05-30T13:32:58.804Z,68.66
2019-05-30T13:35:25.846Z,69.04
2019-05-30T13:37:52.659Z,67.28
2019-05-30T13:40:25.387Z,68.07
2019-05-30T13:42:48.798Z,68.48
2019-05-30T13:45:16.313Z,68.15
2019-05-30T13:47:43.017Z,69.26
2019-05-30T13:50:14.019Z,65.54
2019-05-30T13:52:41.197Z,65.64
2019-05-30T13:55:10.198Z,67.16
2019-05-30T13:57:37.371Z,67.74
2019-05-30T14:00:08.608Z,67.17
2019-05-30T14:02:35.405Z,67.86
2019-05-30T14:05:06.332Z,68.25
2019-05-30T14:07:32.901Z,68.99
2019-05-30T14:10:00.273Z,69.17
2019-05-30T14:12:27.054Z,68.48
2019-05-30T14:14:53.693Z,69.11
2019-05-30T14:17:20.215Z,69.93
2019-05-30T14:19:46.879Z,70.15
2019-05-30T14:22:13.404Z,71.36
2019-05-30T14:24:39.959Z,70.52
2019-05-30T14:27:07.634Z,70.45
2019-05-30T14:29:34.502Z,71.18
2019-05-30T14:32:02.301Z,70.66
2019-05-30T14:34:29.149Z,71.09
2019-05-30T14:36:55.833Z,71.16
2019-05-30T14:39:22.315Z,71.66
2019-05-30T14:41:48.979Z,70.92
2019-05-30T14:44:15.621Z,70.94
2019-05-30T14:46:42.431Z,67.99
2019-05-30T14:49:09.139Z,66.31
2019-05-30T14:51:35.881Z,67.63
2019-05-30T14:54:02.481Z,68.11
2019-05-30T14:56:29.278Z,67.11
2019-05-30T14:58:55.911Z,67.48
2019-05-30T15:01:22.523Z,68.98
2019-05-30T15:03:49.202Z,67.94
2019-05-30T15:06:17.943Z,68.28
2019-05-30T15:08:45.026Z,68.79
2019-05-30T15:11:11.816Z,68.26
2019-05-30T15:13:38.796Z,68.61
2019-05-30T15:16:06.696Z,68.76
2019-05-30T15:18:33.486Z,69.78
2019-05-30T15:21:00.074Z,69.88
2019-05-30T15:23:26.679Z,69.58
2019-05-30T15:25:53.404Z,69.53
2019-05-30T15:28:19.927Z,69.78
2019-05-30T15:30:46.436Z,69.84
2019-05-30T15:33:14.430Z,69.67
2019-05-30T15:35:41.273Z,69.56
2019-05-30T15:38:08.765Z,68.82
2019-05-30T15:40:35.530Z,69.02
2019-05-30T15:43:02.309Z,68.66
2019-05-30T15:45:29.373Z,68.27
2019-05-30T15:47:56.148Z,68.08
2019-05-30T15:50:23.085Z,68.38
2019-05-30T15:52:50.066Z,68.51
2019-05-30T15:55:17.459Z,68.60
2019-05-30T15:57:44.594Z,68.63
2019-05-30T16:00:14.052Z,69.05
2019-05-30T16:02:41.339Z,68.65
2019-05-30T16:05:08.664Z,68.96
2019-05-30T16:07:36.836Z,69.35
2019-05-30T16:10:06.011Z,69.47
2019-05-30T16:12:32.866Z,69.37
2019-05-30T16:18:43.957Z,69.91
2019-05-30T16:21:56.025Z,70.62
2019-05-30T16:24:42.325Z,70.79
2019-05-30T16:27:09.199Z,71.15
2019-05-30T16:29:36.005Z,71.45
2019-05-30T16:32:34.324Z,71.15
2019-05-30T16:35:01.359Z,70.93
2019-05-30T16:37:28.134Z,71.52
2019-05-30T16:40:05.309Z,71.89
2019-05-30T16:42:23.994Z,71.48
2019-05-30T16:44:51.089Z,70.71
2019-05-30T16:47:18.397Z,70.76
2019-05-30T16:49:45.105Z,70.89
2019-05-30T16:52:11.704Z,71.36
2019-05-30T16:54:38.666Z,70.99
2019-05-30T16:57:05.330Z,71.27
2019-05-30T16:59:32.278Z,71.74
2019-05-30T17:01:59.202Z,72.44
2019-05-30T17:04:27.165Z,73.00
2019-05-30T17:06:55.202Z,73.15
2019-05-30T17:09:21.837Z,73.74
2019-05-30T17:11:48.679Z,74.55
2019-05-30T17:14:15.602Z,75.86
2019-05-30T17:16:43.066Z,76.10
2019-05-30T17:19:09.802Z,77.56
2019-05-30T17:21:36.639Z,78.04
2019-05-30T17:24:03.363Z,78.76
2019-05-30T17:26:30.268Z,78.49
2019-05-30T17:28:56.949Z,78.18
2019-05-30T17:31:24.027Z,78.47
2019-05-30T17:33:50.638Z,78.36
2019-05-30T17:36:18.095Z,79.11
2019-05-30T17:38:44.972Z,79.42
2019-05-30T17:41:11.741Z,80.38
2019-05-30T17:43:38.612Z,80.56
2019-05-30T17:46:07.791Z,80.24
2019-05-30T17:48:33.694Z,79.95
2019-05-30T17:51:00.591Z,80.58
2019-05-30T17:53:27.984Z,80.60
2019-05-30T17:55:54.786Z,80.54
2019-05-30T17:58:21.910Z,80.40
2019-05-30T18:00:48.711Z,79.60
2019-05-30T18:03:15.535Z,79.97
2019-05-30T18:05:42.262Z,80.07
2019-05-30T18:08:09.115Z,80.15
2019-05-30T18:10:35.814Z,79.67
2019-05-30T18:13:02.666Z,79.75
2019-05-30T18:15:31.994Z,79.53
2019-05-30T18:17:58.326Z,80.04
2019-05-30T18:20:25.358Z,79.70
2019-05-30T18:22:52.073Z,79.40
2019-05-30T18:25:19.303Z,79.57
2019-05-30T18:27:46.044Z,79.66
2019-05-30T18:30:14.861Z,80.07
2019-05-30T18:32:41.565Z,80.19
2019-05-30T18:35:08.932Z,80.06
2019-05-30T18:37:36.938Z,81.34
2019-05-30T18:40:06.027Z,79.94
2019-05-30T18:42:33.708Z,80.16
2019-05-30T18:45:00.782Z,79.61
2019-05-30T18:47:27.424Z,79.73
2019-05-30T18:49:54.065Z,79.25
2019-05-30T18:52:20.879Z,78.95
2019-05-30T18:54:47.615Z,79.27
2019-05-30T18:57:14.306Z,79.40
2019-05-30T18:59:41.304Z,79.23
2019-05-30T19:02:08.034Z,79.72
2019-05-30T19:04:36.405Z,80.90
2019-05-30T19:07:03.537Z,79.26
2019-05-30T19:09:31.914Z,79.13
2019-05-30T19:11:58.638Z,78.70
2019-05-30T19:14:29.422Z,79.62
2019-05-30T19:16:54.034Z,79.55
2019-05-30T19:19:20.661Z,79.21
2019-05-30T19:21:47.356Z,79.63
2019-05-30T19:24:14.007Z,79.16
2019-05-30T19:26:40.637Z,79.37
2019-05-30T19:29:07.389Z,79.00
2019-05-30T19:31:34.772Z,79.06
2019-05-30T19:34:01.613Z,78.42
2019-05-30T19:36:28.811Z,78.55
2019-05-30T19:38:55.916Z,79.69
2019-05-30T19:41:22.609Z,79.55
2019-05-30T19:43:49.230Z,79.66
2019-05-30T19:46:15.762Z,79.51
2019-05-30T19:48:44.958Z,78.92
2019-05-30T19:51:11.631Z,79.41
2019-05-30T19:53:39.144Z,79.21
2019-05-30T19:56:06.117Z,79.42
2019-05-30T19:58:33.408Z,79.56
2019-05-30T20:01:00.334Z,79.44
2019-05-30T20:03:36.537Z,79.82
2019-05-30T20:05:55.823Z,79.69
2019-05-30T20:08:22.834Z,80.09
2019-05-30T20:10:49.431Z,80.01
2019-05-30T20:13:16.299Z,80.17
2019-05-30T20:15:43.113Z,80.10
2019-05-30T20:18:09.723Z,80.41
2019-05-30T20:20:50.690Z,80.15
2019-05-30T20:23:05.204Z,79.45
2019-05-30T20:25:32.688Z,79.27
2019-05-30T20:27:59.502Z,78.95
2019-05-30T20:30:27.594Z,78.59
2019-05-30T20:32:54.165Z,78.89
2019-05-30T20:35:21.283Z,78.84
2019-05-30T20:37:47.980Z,78.38
2019-05-30T20:40:15.144Z,78.07
2019-05-30T20:42:44.504Z,78.74
2019-05-30T20:45:11.972Z,78.05
2019-05-30T20:47:39.365Z,78.87
2019-05-30T20:50:10.747Z,78.58
2019-05-30T20:52:40.351Z,78.44
2019-05-30T20:55:06.954Z,79.37
2019-05-30T20:57:34.338Z,79.47
2019-05-30T21:00:01.751Z,79.67
2019-05-30T21:02:29.456Z,79.30
2019-05-30T21:04:56.579Z,79.29
2019-05-30T21:07:24.065Z,79.57
2019-05-30T21:09:51.123Z,79.76
2019-05-30T21:12:55.171Z,80.17
2019-05-30T21:15:21.919Z,79.49
2019-05-30T21:17:50.605Z,79.39
2019-05-30T21:20:17.737Z,79.94
2019-05-30T21:22:44.779Z,79.75
2019-05-30T21:25:12.098Z,79.79
2019-05-30T21:27:39.144Z,79.25
2019-05-30T21:30:06.789Z,78.93
2019-05-30T21:32:35.242Z,79.35
2019-05-30T21:35:04.962Z,79.64
2019-05-30T21:37:34.764Z,79.83
2019-05-30T21:40:01.534Z,79.67
2019-05-30T21:42:28.125Z,79.63
2019-05-30T21:44:54.767Z,79.46
2019-05-30T21:47:21.434Z,79.87
2019-05-30T21:49:49.215Z,80.22
2019-05-30T21:52:16.382Z,79.89
2019-05-30T21:54:43.801Z,80.26
2019-05-30T21:57:10.675Z,79.69
2019-05-30T21:59:37.341Z,79.60
2019-05-30T22:02:04.810Z,79.40
2019-05-30T22:04:32.472Z,78.99
2019-05-30T22:06:59.272Z,79.31
2019-05-30T22:09:26.030Z,78.80
2019-05-30T22:11:54.255Z,79.18
2019-05-30T22:14:23.004Z,78.85
2019-05-30T22:16:50.221Z,78.78
2019-05-30T22:19:17.258Z,78.67
2019-05-30T22:21:44.200Z,78.01
2019-05-30T22:24:11.523Z,77.87
2019-05-30T22:26:38.352Z,77.49
2019-05-30T22:29:05.148Z,77.53
2019-05-30T22:31:32.084Z,76.95
2019-05-30T22:33:58.967Z,76.99
2019-05-30T22:36:25.729Z,77.46
2019-05-30T22:38:53.257Z,77.36
2019-05-30T22:41:20.102Z,77.03
2019-05-30T22:43:46.700Z,77.30
2019-05-30T22:46:13.444Z,77.42
2019-05-30T22:48:40.164Z,78.20
2019-05-30T22:51:07.341Z,77.27
2019-05-30T22:53:34.245Z,77.68
2019-05-30T22:56:01.035Z,76.87
2019-05-30T22:58:27.608Z,76.59
2019-05-30T23:00:54.214Z,77.69
2019-05-30T23:03:20.736Z,78.31
2019-05-30T23:05:47.335Z,77.80
2019-05-30T23:08:14.170Z,77.47
2019-05-30T23:10:40.870Z,77.88
2019-05-30T23:13:08.010Z,77.71
2019-05-30T23:15:34.762Z,77.66
2019-05-30T23:18:01.540Z,77.44
2019-05-30T23:20:28.196Z,78.76
2019-05-30T23:22:55.200Z,79.23
2019-05-30T23:25:22.092Z,78.81
2019-05-30T23:27:49.501Z,78.19
2019-05-30T23:30:17.097Z,79.36
2019-05-30T23:32:43.708Z,78.45
2019-05-30T23:35:10.503Z,77.79
2019-05-30T23:37:37.208Z,77.64
2019-05-30T23:40:04.738Z,78.77
2019-05-30T23:42:31.320Z,79.12
2019-05-30T23:44:58.030Z,78.14
2019-05-30T23:47:24.541Z,77.94
2019-05-30T23:49:51.784Z,78.73
2019-05-30T23:52:18.655Z,78.78
2019-05-30T23:54:45.560Z,79.03
2019-05-30T23:57:12.137Z,78.47
2019-05-30T23:59:38.722Z,78.85
